sensor_id;sensor_type;location;lat;lon;timestamp;P1;durP1;ratioP1;P2;durP2;ratioP2
53871;SDS011;39787;53.174;5.798;2023-08-21T00:00:04;5.57;;;3.40;;
53871;SDS011;39787;53.174;5.798;2023-08-21T00:01:05;5.50;;;3.58;;
53871;SDS011;39787;53.174;5.798;2023-08-21T00:02:06;5.70;;;3.77;;
53871;SDS011;39787;53.174;5.798;2023-08-21T00:03:06;5.73;;;3.77;;
53871;SDS011;39787;53.174;5.798;2023-08-21T00:04:07;6.73;;;3.77;;
53871;SDS011;39787;53.174;5.798;2023-08-21T00:05:07;6.63;;;3.90;;
53871;SDS011;39787;53.174;5.798;2023-08-21T00:06:08;9.60;;;4.00;;
53871;SDS011;39787;53.174;5.798;2023-08-21T00:07:08;9.60;;;4.43;;
53871;SDS011;39787;53.174;5.798;2023-08-21T00:08:09;8.20;;;4.47;;
53871;SDS011;39787;53.174;5.798;2023-08-21T00:09:09;10.90;;;4.27;;
53871;SDS011;39787;53.174;5.798;2023-08-21T00:10:10;10.30;;;4.40;;
53871;SDS011;39787;53.174;5.798;2023-08-21T00:11:10;13.53;;;4.27;;
53871;SDS011;39787;53.174;5.798;2023-08-21T00:12:11;8.50;;;4.47;;
53871;SDS011;39787;53.174;5.798;2023-08-21T00:13:11;5.87;;;4.10;;
53871;SDS011;39787;53.174;5.798;2023-08-21T00:14:12;9.03;;;4.33;;
53871;SDS011;39787;53.174;5.798;2023-08-21T00:15:12;6.50;;;3.70;;
53871;SDS011;39787;53.174;5.798;2023-08-21T00:16:13;5.77;;;3.20;;
53871;SDS011;39787;53.174;5.798;2023-08-21T00:17:13;6.95;;;3.45;;
53871;SDS011;39787;53.174;5.798;2023-08-21T00:18:14;8.17;;;3.23;;
53871;SDS011;39787;53.174;5.798;2023-08-21T00:19:14;8.23;;;3.47;;
53871;SDS011;39787;53.174;5.798;2023-08-21T00:20:15;3.70;;;3.00;;
53871;SDS011;39787;53.174;5.798;2023-08-21T00:21:16;8.50;;;3.43;;
53871;SDS011;39787;53.174;5.798;2023-08-21T00:22:16;4.40;;;2.63;;
53871;SDS011;39787;53.174;5.798;2023-08-21T00:23:16;3.60;;;3.13;;
53871;SDS011;39787;53.174;5.798;2023-08-21T00:24:17;7.87;;;2.80;;
53871;SDS011;39787;53.174;5.798;2023-08-21T00:25:17;6.67;;;3.80;;
53871;SDS011;39787;53.174;5.798;2023-08-21T00:26:18;3.63;;;2.80;;
53871;SDS011;39787;53.174;5.798;2023-08-21T00:27:18;6.50;;;2.90;;
53871;SDS011;39787;53.174;5.798;2023-08-21T00:28:19;2.97;;;2.67;;
53871;SDS011;39787;53.174;5.798;2023-08-21T00:29:19;3.43;;;2.67;;
53871;SDS011;39787;53.174;5.798;2023-08-21T00:30:20;4.73;;;2.87;;
53871;SDS011;39787;53.174;5.798;2023-08-21T00:31:20;3.13;;;2.30;;
53871;SDS011;39787;53.174;5.798;2023-08-21T00:32:21;1.73;;;1.60;;
53871;SDS011;39787;53.174;5.798;2023-08-21T00:33:21;4.57;;;2.13;;
53871;SDS011;39787;53.174;5.798;2023-08-21T00:34:22;2.47;;;2.10;;
53871;SDS011;39787;53.174;5.798;2023-08-21T00:35:22;2.97;;;2.30;;
53871;SDS011;39787;53.174;5.798;2023-08-21T00:36:23;3.13;;;2.03;;
53871;SDS011;39787;53.174;5.798;2023-08-21T00:37:23;3.57;;;2.13;;
53871;SDS011;39787;53.174;5.798;2023-08-21T00:38:24;3.17;;;2.30;;
53871;SDS011;39787;53.174;5.798;2023-08-21T00:39:25;4.10;;;2.10;;
53871;SDS011;39787;53.174;5.798;2023-08-21T00:40:25;5.43;;;2.50;;
53871;SDS011;39787;53.174;5.798;2023-08-21T00:41:26;3.93;;;2.57;;
53871;SDS011;39787;53.174;5.798;2023-08-21T00:42:27;2.80;;;2.60;;
53871;SDS011;39787;53.174;5.798;2023-08-21T00:43:27;6.60;;;3.03;;
53871;SDS011;39787;53.174;5.798;2023-08-21T00:44:28;4.87;;;3.40;;
53871;SDS011;39787;53.174;5.798;2023-08-21T00:45:28;8.87;;;3.40;;
53871;SDS011;39787;53.174;5.798;2023-08-21T00:46:30;6.60;;;2.92;;
53871;SDS011;39787;53.174;5.798;2023-08-21T00:47:31;5.68;;;2.97;;
53871;SDS011;39787;53.174;5.798;2023-08-21T00:48:32;5.43;;;2.90;;
53871;SDS011;39787;53.174;5.798;2023-08-21T00:49:33;4.68;;;3.05;;
53871;SDS011;39787;53.174;5.798;2023-08-21T00:50:34;6.63;;;2.95;;
53871;SDS011;39787;53.174;5.798;2023-08-21T00:51:34;5.77;;;3.07;;
53871;SDS011;39787;53.174;5.798;2023-08-21T00:52:35;8.67;;;2.80;;
53871;SDS011;39787;53.174;5.798;2023-08-21T00:54:37;6.05;;;3.28;;
53871;SDS011;39787;53.174;5.798;2023-08-21T00:55:38;7.60;;;3.17;;
53871;SDS011;39787;53.174;5.798;2023-08-21T00:56:38;5.70;;;3.10;;
53871;SDS011;39787;53.174;5.798;2023-08-21T00:57:39;6.17;;;3.23;;
53871;SDS011;39787;53.174;5.798;2023-08-21T00:58:40;6.93;;;3.23;;
53871;SDS011;39787;53.174;5.798;2023-08-21T00:59:41;10.95;;;3.63;;
53871;SDS011;39787;53.174;5.798;2023-08-21T01:00:41;6.33;;;3.20;;
53871;SDS011;39787;53.174;5.798;2023-08-21T01:01:47;10.82;;;3.90;;
53871;SDS011;39787;53.174;5.798;2023-08-21T01:02:48;6.93;;;3.13;;
53871;SDS011;39787;53.174;5.798;2023-08-21T01:03:48;7.20;;;3.10;;
53871;SDS011;39787;53.174;5.798;2023-08-21T01:04:49;7.27;;;3.37;;
53871;SDS011;39787;53.174;5.798;2023-08-21T01:05:49;5.80;;;3.20;;
53871;SDS011;39787;53.174;5.798;2023-08-21T01:06:50;8.77;;;3.45;;
53871;SDS011;39787;53.174;5.798;2023-08-21T01:07:53;7.32;;;3.47;;
53871;SDS011;39787;53.174;5.798;2023-08-21T01:09:08;9.75;;;3.92;;
53871;SDS011;39787;53.174;5.798;2023-08-21T01:12:09;7.53;;;3.22;;
53871;SDS011;39787;53.174;5.798;2023-08-21T01:12:56;7.60;;;3.30;;
53871;SDS011;39787;53.174;5.798;2023-08-21T01:14:06;4.88;;;2.92;;
53871;SDS011;39787;53.174;5.798;2023-08-21T01:15:16;10.15;;;3.42;;
53871;SDS011;39787;53.174;5.798;2023-08-21T01:16:17;9.80;;;3.05;;
53871;SDS011;39787;53.174;5.798;2023-08-21T01:17:19;6.78;;;3.13;;
53871;SDS011;39787;53.174;5.798;2023-08-21T01:18:21;5.05;;;3.10;;
53871;SDS011;39787;53.174;5.798;2023-08-21T01:19:35;6.28;;;2.65;;
53871;SDS011;39787;53.174;5.798;2023-08-21T01:20:37;5.82;;;2.90;;
53871;SDS011;39787;53.174;5.798;2023-08-21T01:21:39;5.80;;;2.65;;
53871;SDS011;39787;53.174;5.798;2023-08-21T01:22:40;5.67;;;2.73;;
53871;SDS011;39787;53.174;5.798;2023-08-21T01:23:41;6.10;;;2.72;;
53871;SDS011;39787;53.174;5.798;2023-08-21T01:24:42;5.07;;;2.70;;
53871;SDS011;39787;53.174;5.798;2023-08-21T01:25:42;7.70;;;2.90;;
53871;SDS011;39787;53.174;5.798;2023-08-21T01:26:42;8.43;;;2.80;;
53871;SDS011;39787;53.174;5.798;2023-08-21T01:27:43;6.27;;;2.70;;
53871;SDS011;39787;53.174;5.798;2023-08-21T01:28:47;7.35;;;3.08;;
53871;SDS011;39787;53.174;5.798;2023-08-21T01:29:48;4.70;;;2.70;;
53871;SDS011;39787;53.174;5.798;2023-08-21T01:30:50;4.40;;;2.55;;
53871;SDS011;39787;53.174;5.798;2023-08-21T01:31:56;6.07;;;2.58;;
53871;SDS011;39787;53.174;5.798;2023-08-21T01:33:06;5.03;;;3.00;;
53871;SDS011;39787;53.174;5.798;2023-08-21T01:34:11;5.43;;;2.78;;
53871;SDS011;39787;53.174;5.798;2023-08-21T01:35:14;9.05;;;2.60;;
53871;SDS011;39787;53.174;5.798;2023-08-21T01:36:15;5.20;;;2.33;;
53871;SDS011;39787;53.174;5.798;2023-08-21T01:37:15;9.03;;;3.10;;
53871;SDS011;39787;53.174;5.798;2023-08-21T01:38:17;6.07;;;2.92;;
53871;SDS011;39787;53.174;5.798;2023-08-21T01:39:18;3.22;;;2.58;;
53871;SDS011;39787;53.174;5.798;2023-08-21T01:40:22;7.82;;;3.00;;
53871;SDS011;39787;53.174;5.798;2023-08-21T01:41:23;7.55;;;3.03;;
53871;SDS011;39787;53.174;5.798;2023-08-21T01:42:24;10.45;;;3.25;;
53871;SDS011;39787;53.174;5.798;2023-08-21T01:43:24;9.93;;;3.37;;
53871;SDS011;39787;53.174;5.798;2023-08-21T01:44:25;6.40;;;2.83;;
53871;SDS011;39787;53.174;5.798;2023-08-21T01:45:25;10.97;;;3.17;;
53871;SDS011;39787;53.174;5.798;2023-08-21T01:46:26;7.20;;;3.30;;
53871;SDS011;39787;53.174;5.798;2023-08-21T01:47:27;8.37;;;2.93;;
53871;SDS011;39787;53.174;5.798;2023-08-21T01:48:27;5.23;;;2.93;;
53871;SDS011;39787;53.174;5.798;2023-08-21T01:49:28;8.20;;;3.23;;
53871;SDS011;39787;53.174;5.798;2023-08-21T01:50:28;8.87;;;3.27;;
53871;SDS011;39787;53.174;5.798;2023-08-21T01:51:29;8.30;;;3.10;;
53871;SDS011;39787;53.174;5.798;2023-08-21T01:52:29;7.77;;;3.03;;
53871;SDS011;39787;53.174;5.798;2023-08-21T01:53:29;5.40;;;2.83;;
53871;SDS011;39787;53.174;5.798;2023-08-21T01:54:30;8.60;;;3.17;;
53871;SDS011;39787;53.174;5.798;2023-08-21T01:55:30;8.27;;;3.17;;
53871;SDS011;39787;53.174;5.798;2023-08-21T01:56:31;5.70;;;3.07;;
53871;SDS011;39787;53.174;5.798;2023-08-21T01:57:31;5.97;;;2.77;;
53871;SDS011;39787;53.174;5.798;2023-08-21T01:58:32;5.97;;;3.10;;
53871;SDS011;39787;53.174;5.798;2023-08-21T01:59:32;8.07;;;3.03;;
53871;SDS011;39787;53.174;5.798;2023-08-21T02:00:33;6.47;;;3.03;;
53871;SDS011;39787;53.174;5.798;2023-08-21T02:01:33;5.90;;;3.03;;
53871;SDS011;39787;53.174;5.798;2023-08-21T02:02:34;14.93;;;3.17;;
53871;SDS011;39787;53.174;5.798;2023-08-21T02:03:34;8.27;;;3.17;;
53871;SDS011;39787;53.174;5.798;2023-08-21T02:04:35;3.93;;;2.70;;
53871;SDS011;39787;53.174;5.798;2023-08-21T02:05:39;12.97;;;3.53;;
53871;SDS011;39787;53.174;5.798;2023-08-21T02:06:40;6.15;;;3.05;;
53871;SDS011;39787;53.174;5.798;2023-08-21T02:07:40;7.40;;;2.80;;
53871;SDS011;39787;53.174;5.798;2023-08-21T02:08:41;7.17;;;3.33;;
53871;SDS011;39787;53.174;5.798;2023-08-21T02:09:41;5.97;;;2.80;;
53871;SDS011;39787;53.174;5.798;2023-08-21T02:10:51;4.20;;;2.63;;
53871;SDS011;39787;53.174;5.798;2023-08-21T02:11:52;6.93;;;2.95;;
53871;SDS011;39787;53.174;5.798;2023-08-21T02:12:52;5.83;;;2.90;;
53871;SDS011;39787;53.174;5.798;2023-08-21T02:13:53;3.93;;;3.00;;
53871;SDS011;39787;53.174;5.798;2023-08-21T02:14:53;7.07;;;3.37;;
53871;SDS011;39787;53.174;5.798;2023-08-21T02:15:54;5.43;;;2.87;;
53871;SDS011;39787;53.174;5.798;2023-08-21T02:16:54;4.30;;;2.97;;
53871;SDS011;39787;53.174;5.798;2023-08-21T02:17:55;7.07;;;2.70;;
53871;SDS011;39787;53.174;5.798;2023-08-21T02:18:55;6.20;;;2.70;;
53871;SDS011;39787;53.174;5.798;2023-08-21T02:19:56;2.90;;;2.17;;
53871;SDS011;39787;53.174;5.798;2023-08-21T02:20:56;4.20;;;2.77;;
53871;SDS011;39787;53.174;5.798;2023-08-21T02:21:57;5.97;;;2.87;;
53871;SDS011;39787;53.174;5.798;2023-08-21T02:22:57;5.23;;;2.00;;
53871;SDS011;39787;53.174;5.798;2023-08-21T02:23:58;3.47;;;2.47;;
53871;SDS011;39787;53.174;5.798;2023-08-21T02:24:59;4.25;;;2.33;;
53871;SDS011;39787;53.174;5.798;2023-08-21T02:25:59;6.30;;;2.10;;
53871;SDS011;39787;53.174;5.798;2023-08-21T02:27:00;6.67;;;2.70;;
53871;SDS011;39787;53.174;5.798;2023-08-21T02:28:00;5.70;;;2.37;;
53871;SDS011;39787;53.174;5.798;2023-08-21T02:29:01;2.90;;;2.35;;
53871;SDS011;39787;53.174;5.798;2023-08-21T02:30:02;2.60;;;2.40;;
53871;SDS011;39787;53.174;5.798;2023-08-21T02:31:02;2.42;;;2.20;;
53871;SDS011;39787;53.174;5.798;2023-08-21T02:32:03;3.90;;;2.30;;
53871;SDS011;39787;53.174;5.798;2023-08-21T02:33:03;3.17;;;2.55;;
53871;SDS011;39787;53.174;5.798;2023-08-21T02:34:04;4.27;;;2.37;;
53871;SDS011;39787;53.174;5.798;2023-08-21T02:35:06;4.15;;;2.15;;
53871;SDS011;39787;53.174;5.798;2023-08-21T02:36:07;4.57;;;2.33;;
53871;SDS011;39787;53.174;5.798;2023-08-21T02:37:08;2.90;;;2.50;;
53871;SDS011;39787;53.174;5.798;2023-08-21T02:38:08;4.50;;;2.40;;
53871;SDS011;39787;53.174;5.798;2023-08-21T02:39:09;3.90;;;2.47;;
53871;SDS011;39787;53.174;5.798;2023-08-21T02:40:09;4.83;;;2.30;;
53871;SDS011;39787;53.174;5.798;2023-08-21T02:41:10;3.63;;;2.13;;
53871;SDS011;39787;53.174;5.798;2023-08-21T02:42:10;4.70;;;2.20;;
53871;SDS011;39787;53.174;5.798;2023-08-21T02:43:11;3.40;;;2.20;;
53871;SDS011;39787;53.174;5.798;2023-08-21T02:44:11;4.73;;;2.63;;
53871;SDS011;39787;53.174;5.798;2023-08-21T02:45:12;4.90;;;2.30;;
53871;SDS011;39787;53.174;5.798;2023-08-21T02:46:12;5.23;;;2.53;;
53871;SDS011;39787;53.174;5.798;2023-08-21T02:47:12;3.27;;;2.33;;
53871;SDS011;39787;53.174;5.798;2023-08-21T02:48:13;5.80;;;2.77;;
53871;SDS011;39787;53.174;5.798;2023-08-21T02:49:13;3.47;;;2.30;;
53871;SDS011;39787;53.174;5.798;2023-08-21T02:50:14;4.77;;;2.30;;
53871;SDS011;39787;53.174;5.798;2023-08-21T02:51:14;5.50;;;2.70;;
53871;SDS011;39787;53.174;5.798;2023-08-21T02:52:16;5.33;;;2.47;;
53871;SDS011;39787;53.174;5.798;2023-08-21T02:53:17;4.63;;;2.10;;
53871;SDS011;39787;53.174;5.798;2023-08-21T02:54:18;2.57;;;1.90;;
53871;SDS011;39787;53.174;5.798;2023-08-21T02:55:18;5.23;;;1.97;;
53871;SDS011;39787;53.174;5.798;2023-08-21T02:56:19;2.57;;;1.90;;
53871;SDS011;39787;53.174;5.798;2023-08-21T02:57:19;2.93;;;1.37;;
53871;SDS011;39787;53.174;5.798;2023-08-21T02:58:20;3.23;;;1.33;;
53871;SDS011;39787;53.174;5.798;2023-08-21T02:59:20;3.30;;;1.40;;
53871;SDS011;39787;53.174;5.798;2023-08-21T03:00:21;4.77;;;1.13;;
53871;SDS011;39787;53.174;5.798;2023-08-21T03:01:21;1.80;;;0.87;;
53871;SDS011;39787;53.174;5.798;2023-08-21T03:02:22;5.27;;;1.40;;
53871;SDS011;39787;53.174;5.798;2023-08-21T03:03:22;4.78;;;1.50;;
53871;SDS011;39787;53.174;5.798;2023-08-21T03:04:23;1.47;;;1.23;;
53871;SDS011;39787;53.174;5.798;2023-08-21T03:05:23;3.83;;;1.77;;
53871;SDS011;39787;53.174;5.798;2023-08-21T03:06:24;4.37;;;1.70;;
53871;SDS011;39787;53.174;5.798;2023-08-21T03:07:24;2.63;;;1.60;;
53871;SDS011;39787;53.174;5.798;2023-08-21T03:08:25;4.50;;;2.10;;
53871;SDS011;39787;53.174;5.798;2023-08-21T03:09:25;2.93;;;1.70;;
53871;SDS011;39787;53.174;5.798;2023-08-21T03:10:26;6.63;;;2.40;;
53871;SDS011;39787;53.174;5.798;2023-08-21T03:11:26;3.63;;;2.00;;
53871;SDS011;39787;53.174;5.798;2023-08-21T03:12:27;5.90;;;2.27;;
53871;SDS011;39787;53.174;5.798;2023-08-21T03:13:27;7.60;;;2.17;;
53871;SDS011;39787;53.174;5.798;2023-08-21T03:14:28;1.93;;;1.40;;
53871;SDS011;39787;53.174;5.798;2023-08-21T03:15:28;3.23;;;1.60;;
53871;SDS011;39787;53.174;5.798;2023-08-21T03:16:29;1.47;;;1.10;;
53871;SDS011;39787;53.174;5.798;2023-08-21T03:17:29;1.17;;;0.63;;
53871;SDS011;39787;53.174;5.798;2023-08-21T03:18:31;1.03;;;0.50;;
53871;SDS011;39787;53.174;5.798;2023-08-21T03:19:32;5.07;;;0.70;;
53871;SDS011;39787;53.174;5.798;2023-08-21T03:20:32;2.63;;;0.50;;
53871;SDS011;39787;53.174;5.798;2023-08-21T03:21:33;0.53;;;0.40;;
53871;SDS011;39787;53.174;5.798;2023-08-21T03:22:33;0.70;;;0.70;;
53871;SDS011;39787;53.174;5.798;2023-08-21T03:23:34;0.97;;;0.40;;
53871;SDS011;39787;53.174;5.798;2023-08-21T03:24:34;1.70;;;0.90;;
53871;SDS011;39787;53.174;5.798;2023-08-21T03:25:34;2.50;;;0.70;;
53871;SDS011;39787;53.174;5.798;2023-08-21T03:26:35;2.13;;;0.77;;
53871;SDS011;39787;53.174;5.798;2023-08-21T03:27:35;0.90;;;0.63;;
53871;SDS011;39787;53.174;5.798;2023-08-21T03:28:36;1.07;;;0.50;;
53871;SDS011;39787;53.174;5.798;2023-08-21T03:29:36;0.60;;;0.60;;
53871;SDS011;39787;53.174;5.798;2023-08-21T03:30:38;2.17;;;0.80;;
53871;SDS011;39787;53.174;5.798;2023-08-21T03:31:39;0.85;;;0.68;;
53871;SDS011;39787;53.174;5.798;2023-08-21T03:32:40;0.70;;;0.70;;
53871;SDS011;39787;53.174;5.798;2023-08-21T03:33:41;0.90;;;0.70;;
53871;SDS011;39787;53.174;5.798;2023-08-21T03:34:41;1.43;;;0.60;;
53871;SDS011;39787;53.174;5.798;2023-08-21T03:35:42;0.67;;;0.63;;
53871;SDS011;39787;53.174;5.798;2023-08-21T03:36:42;1.00;;;0.60;;
53871;SDS011;39787;53.174;5.798;2023-08-21T03:37:43;1.50;;;0.67;;
53871;SDS011;39787;53.174;5.798;2023-08-21T03:38:43;2.13;;;0.60;;
53871;SDS011;39787;53.174;5.798;2023-08-21T03:39:43;2.00;;;0.60;;
53871;SDS011;39787;53.174;5.798;2023-08-21T03:40:44;2.07;;;0.47;;
53871;SDS011;39787;53.174;5.798;2023-08-21T03:41:44;1.33;;;0.50;;
53871;SDS011;39787;53.174;5.798;2023-08-21T03:42:45;2.43;;;0.73;;
53871;SDS011;39787;53.174;5.798;2023-08-21T03:43:45;1.60;;;0.47;;
53871;SDS011;39787;53.174;5.798;2023-08-21T03:44:46;0.83;;;0.73;;
53871;SDS011;39787;53.174;5.798;2023-08-21T03:45:46;1.03;;;0.67;;
53871;SDS011;39787;53.174;5.798;2023-08-21T03:46:47;1.33;;;0.57;;
53871;SDS011;39787;53.174;5.798;2023-08-21T03:47:47;1.07;;;0.60;;
53871;SDS011;39787;53.174;5.798;2023-08-21T03:48:48;1.37;;;0.73;;
53871;SDS011;39787;53.174;5.798;2023-08-21T03:49:49;1.58;;;0.70;;
53871;SDS011;39787;53.174;5.798;2023-08-21T03:50:50;1.07;;;0.80;;
53871;SDS011;39787;53.174;5.798;2023-08-21T03:51:50;1.87;;;0.73;;
53871;SDS011;39787;53.174;5.798;2023-08-21T03:52:51;4.13;;;0.90;;
53871;SDS011;39787;53.174;5.798;2023-08-21T03:53:51;1.70;;;1.10;;
53871;SDS011;39787;53.174;5.798;2023-08-21T03:54:52;2.37;;;1.20;;
53871;SDS011;39787;53.174;5.798;2023-08-21T03:55:52;2.20;;;1.50;;
53871;SDS011;39787;53.174;5.798;2023-08-21T03:56:53;4.07;;;1.57;;
53871;SDS011;39787;53.174;5.798;2023-08-21T03:57:53;12.47;;;2.30;;
53871;SDS011;39787;53.174;5.798;2023-08-21T03:58:53;4.73;;;2.60;;
53871;SDS011;39787;53.174;5.798;2023-08-21T03:59:54;4.83;;;2.37;;
53871;SDS011;39787;53.174;5.798;2023-08-21T04:00:54;16.80;;;3.30;;
53871;SDS011;39787;53.174;5.798;2023-08-21T04:01:55;3.50;;;2.70;;
53871;SDS011;39787;53.174;5.798;2023-08-21T04:02:56;6.57;;;2.90;;
53871;SDS011;39787;53.174;5.798;2023-08-21T04:03:57;3.22;;;2.92;;
53871;SDS011;39787;53.174;5.798;2023-08-21T04:04:57;16.90;;;2.80;;
53871;SDS011;39787;53.174;5.798;2023-08-21T04:05:58;7.43;;;3.00;;
53871;SDS011;39787;53.174;5.798;2023-08-21T04:06:59;7.07;;;3.17;;
53871;SDS011;39787;53.174;5.798;2023-08-21T04:07:59;4.83;;;2.97;;
53871;SDS011;39787;53.174;5.798;2023-08-21T04:09:00;3.63;;;2.80;;
53871;SDS011;39787;53.174;5.798;2023-08-21T04:10:00;12.97;;;4.90;;
53871;SDS011;39787;53.174;5.798;2023-08-21T04:11:01;11.07;;;4.97;;
53871;SDS011;39787;53.174;5.798;2023-08-21T04:12:01;10.18;;;5.03;;
53871;SDS011;39787;53.174;5.798;2023-08-21T04:13:02;14.07;;;5.67;;
53871;SDS011;39787;53.174;5.798;2023-08-21T04:14:02;7.57;;;4.37;;
53871;SDS011;39787;53.174;5.798;2023-08-21T04:15:03;11.03;;;5.20;;
53871;SDS011;39787;53.174;5.798;2023-08-21T04:16:04;12.60;;;4.80;;
53871;SDS011;39787;53.174;5.798;2023-08-21T04:17:04;5.67;;;4.03;;
53871;SDS011;39787;53.174;5.798;2023-08-21T04:18:05;4.27;;;2.77;;
53871;SDS011;39787;53.174;5.798;2023-08-21T04:19:05;5.00;;;2.90;;
53871;SDS011;39787;53.174;5.798;2023-08-21T04:20:06;3.33;;;3.00;;
53871;SDS011;39787;53.174;5.798;2023-08-21T04:21:07;7.47;;;2.97;;
53871;SDS011;39787;53.174;5.798;2023-08-21T04:22:08;5.97;;;3.08;;
53871;SDS011;39787;53.174;5.798;2023-08-21T04:23:08;4.03;;;2.70;;
53871;SDS011;39787;53.174;5.798;2023-08-21T04:24:09;8.40;;;2.67;;
53871;SDS011;39787;53.174;5.798;2023-08-21T04:25:09;4.10;;;2.57;;
53871;SDS011;39787;53.174;5.798;2023-08-21T04:26:10;4.23;;;2.37;;
53871;SDS011;39787;53.174;5.798;2023-08-21T04:27:10;4.97;;;2.60;;
53871;SDS011;39787;53.174;5.798;2023-08-21T04:28:11;4.37;;;2.10;;
53871;SDS011;39787;53.174;5.798;2023-08-21T04:29:11;2.57;;;1.80;;
53871;SDS011;39787;53.174;5.798;2023-08-21T04:30:12;2.53;;;2.07;;
53871;SDS011;39787;53.174;5.798;2023-08-21T04:31:12;2.57;;;1.80;;
53871;SDS011;39787;53.174;5.798;2023-08-21T04:32:13;2.13;;;1.90;;
53871;SDS011;39787;53.174;5.798;2023-08-21T04:33:13;2.70;;;1.97;;
53871;SDS011;39787;53.174;5.798;2023-08-21T04:34:14;5.10;;;2.00;;
53871;SDS011;39787;53.174;5.798;2023-08-21T04:35:14;3.27;;;2.40;;
53871;SDS011;39787;53.174;5.798;2023-08-21T04:36:15;2.17;;;1.90;;
53871;SDS011;39787;53.174;5.798;2023-08-21T04:37:16;2.67;;;2.15;;
53871;SDS011;39787;53.174;5.798;2023-08-21T04:38:17;2.87;;;2.30;;
53871;SDS011;39787;53.174;5.798;2023-08-21T04:39:17;2.90;;;1.93;;
53871;SDS011;39787;53.174;5.798;2023-08-21T04:40:18;2.88;;;1.95;;
53871;SDS011;39787;53.174;5.798;2023-08-21T04:41:18;6.37;;;2.20;;
53871;SDS011;39787;53.174;5.798;2023-08-21T04:42:19;2.03;;;1.87;;
53871;SDS011;39787;53.174;5.798;2023-08-21T04:43:20;3.47;;;1.52;;
53871;SDS011;39787;53.174;5.798;2023-08-21T04:44:20;2.73;;;1.80;;
53871;SDS011;39787;53.174;5.798;2023-08-21T04:45:21;3.73;;;1.70;;
53871;SDS011;39787;53.174;5.798;2023-08-21T04:46:22;2.10;;;1.67;;
53871;SDS011;39787;53.174;5.798;2023-08-21T04:47:23;1.87;;;1.60;;
53871;SDS011;39787;53.174;5.798;2023-08-21T04:48:23;1.65;;;1.30;;
53871;SDS011;39787;53.174;5.798;2023-08-21T04:49:24;3.03;;;1.53;;
53871;SDS011;39787;53.174;5.798;2023-08-21T04:50:25;2.57;;;1.60;;
53871;SDS011;39787;53.174;5.798;2023-08-21T04:51:26;4.88;;;1.70;;
53871;SDS011;39787;53.174;5.798;2023-08-21T04:52:27;2.13;;;1.73;;
53871;SDS011;39787;53.174;5.798;2023-08-21T04:53:27;1.43;;;1.33;;
53871;SDS011;39787;53.174;5.798;2023-08-21T04:54:28;1.93;;;1.30;;
53871;SDS011;39787;53.174;5.798;2023-08-21T04:55:28;2.83;;;1.10;;
53871;SDS011;39787;53.174;5.798;2023-08-21T04:56:28;1.23;;;1.23;;
53871;SDS011;39787;53.174;5.798;2023-08-21T04:57:29;2.33;;;1.03;;
53871;SDS011;39787;53.174;5.798;2023-08-21T04:58:29;2.37;;;1.13;;
53871;SDS011;39787;53.174;5.798;2023-08-21T04:59:30;1.20;;;1.10;;
53871;SDS011;39787;53.174;5.798;2023-08-21T05:00:30;1.33;;;1.30;;
53871;SDS011;39787;53.174;5.798;2023-08-21T05:01:31;1.70;;;1.60;;
53871;SDS011;39787;53.174;5.798;2023-08-21T05:02:31;2.67;;;2.33;;
53871;SDS011;39787;53.174;5.798;2023-08-21T05:03:33;1.27;;;1.17;;
53871;SDS011;39787;53.174;5.798;2023-08-21T05:04:35;1.50;;;1.40;;
53871;SDS011;39787;53.174;5.798;2023-08-21T05:05:36;1.45;;;1.38;;
53871;SDS011;39787;53.174;5.798;2023-08-21T05:06:37;1.27;;;1.23;;
53871;SDS011;39787;53.174;5.798;2023-08-21T05:07:37;3.90;;;1.23;;
53871;SDS011;39787;53.174;5.798;2023-08-21T05:08:38;1.20;;;1.10;;
53871;SDS011;39787;53.174;5.798;2023-08-21T05:09:38;2.30;;;1.40;;
53871;SDS011;39787;53.174;5.798;2023-08-21T05:10:38;1.43;;;1.30;;
53871;SDS011;39787;53.174;5.798;2023-08-21T05:11:39;1.37;;;1.20;;
53871;SDS011;39787;53.174;5.798;2023-08-21T05:12:39;1.30;;;1.30;;
53871;SDS011;39787;53.174;5.798;2023-08-21T05:13:40;2.47;;;1.47;;
53871;SDS011;39787;53.174;5.798;2023-08-21T05:14:40;1.30;;;1.30;;
53871;SDS011;39787;53.174;5.798;2023-08-21T05:15:41;2.73;;;1.30;;
53871;SDS011;39787;53.174;5.798;2023-08-21T05:16:41;1.63;;;1.53;;
53871;SDS011;39787;53.174;5.798;2023-08-21T05:17:42;1.33;;;1.33;;
53871;SDS011;39787;53.174;5.798;2023-08-21T05:18:42;1.50;;;1.40;;
53871;SDS011;39787;53.174;5.798;2023-08-21T05:19:43;1.63;;;1.53;;
53871;SDS011;39787;53.174;5.798;2023-08-21T05:20:43;1.63;;;1.53;;
53871;SDS011;39787;53.174;5.798;2023-08-21T05:21:44;1.30;;;1.30;;
53871;SDS011;39787;53.174;5.798;2023-08-21T05:22:45;1.55;;;1.38;;
53871;SDS011;39787;53.174;5.798;2023-08-21T05:23:46;2.17;;;1.50;;
53871;SDS011;39787;53.174;5.798;2023-08-21T05:24:46;1.67;;;1.53;;
53871;SDS011;39787;53.174;5.798;2023-08-21T05:25:47;2.10;;;1.23;;
53871;SDS011;39787;53.174;5.798;2023-08-21T05:26:49;2.28;;;1.60;;
53871;SDS011;39787;53.174;5.798;2023-08-21T05:27:49;1.43;;;1.33;;
53871;SDS011;39787;53.174;5.798;2023-08-21T05:28:50;1.60;;;1.50;;
53871;SDS011;39787;53.174;5.798;2023-08-21T05:29:50;1.53;;;1.43;;
53871;SDS011;39787;53.174;5.798;2023-08-21T05:30:51;3.10;;;1.67;;
53871;SDS011;39787;53.174;5.798;2023-08-21T05:31:51;3.43;;;1.37;;
53871;SDS011;39787;53.174;5.798;2023-08-21T05:32:51;2.63;;;1.53;;
53871;SDS011;39787;53.174;5.798;2023-08-21T05:33:52;1.80;;;1.70;;
53871;SDS011;39787;53.174;5.798;2023-08-21T05:34:52;2.37;;;1.80;;
53871;SDS011;39787;53.174;5.798;2023-08-21T05:35:53;1.33;;;1.23;;
53871;SDS011;39787;53.174;5.798;2023-08-21T05:36:53;2.10;;;1.90;;
53871;SDS011;39787;53.174;5.798;2023-08-21T05:37:54;2.03;;;1.80;;
53871;SDS011;39787;53.174;5.798;2023-08-21T05:38:56;1.70;;;1.60;;
53871;SDS011;39787;53.174;5.798;2023-08-21T05:39:56;2.13;;;1.80;;
53871;SDS011;39787;53.174;5.798;2023-08-21T05:40:57;2.20;;;1.90;;
53871;SDS011;39787;53.174;5.798;2023-08-21T05:41:57;2.53;;;2.00;;
53871;SDS011;39787;53.174;5.798;2023-08-21T05:42:58;4.43;;;2.27;;
53871;SDS011;39787;53.174;5.798;2023-08-21T05:43:58;2.00;;;1.90;;
53871;SDS011;39787;53.174;5.798;2023-08-21T05:44:59;3.00;;;2.23;;
53871;SDS011;39787;53.174;5.798;2023-08-21T05:45:59;4.03;;;1.77;;
53871;SDS011;39787;53.174;5.798;2023-08-21T05:47:00;2.70;;;2.17;;
53871;SDS011;39787;53.174;5.798;2023-08-21T05:48:00;3.83;;;2.20;;
53871;SDS011;39787;53.174;5.798;2023-08-21T05:49:01;7.67;;;2.17;;
53871;SDS011;39787;53.174;5.798;2023-08-21T05:50:01;1.73;;;1.63;;
53871;SDS011;39787;53.174;5.798;2023-08-21T05:51:02;2.67;;;2.30;;
53871;SDS011;39787;53.174;5.798;2023-08-21T05:52:02;4.20;;;2.30;;
53871;SDS011;39787;53.174;5.798;2023-08-21T05:53:03;2.10;;;1.90;;
53871;SDS011;39787;53.174;5.798;2023-08-21T05:54:04;2.10;;;1.90;;
53871;SDS011;39787;53.174;5.798;2023-08-21T05:55:05;4.20;;;2.33;;
53871;SDS011;39787;53.174;5.798;2023-08-21T05:56:06;2.30;;;2.10;;
53871;SDS011;39787;53.174;5.798;2023-08-21T05:57:06;2.77;;;2.37;;
53871;SDS011;39787;53.174;5.798;2023-08-21T05:58:07;2.23;;;1.80;;
53871;SDS011;39787;53.174;5.798;2023-08-21T05:59:09;2.67;;;2.33;;
53871;SDS011;39787;53.174;5.798;2023-08-21T06:00:11;2.40;;;2.28;;
53871;SDS011;39787;53.174;5.798;2023-08-21T06:01:12;5.72;;;2.28;;
53871;SDS011;39787;53.174;5.798;2023-08-21T06:02:13;3.00;;;2.43;;
53871;SDS011;39787;53.174;5.798;2023-08-21T06:03:14;5.07;;;2.40;;
53871;SDS011;39787;53.174;5.798;2023-08-21T06:04:14;6.47;;;2.50;;
53871;SDS011;39787;53.174;5.798;2023-08-21T06:05:15;2.50;;;2.17;;
53871;SDS011;39787;53.174;5.798;2023-08-21T06:06:15;6.55;;;2.70;;
53871;SDS011;39787;53.174;5.798;2023-08-21T06:07:16;3.83;;;2.30;;
53871;SDS011;39787;53.174;5.798;2023-08-21T06:08:16;3.07;;;2.37;;
53871;SDS011;39787;53.174;5.798;2023-08-21T06:09:17;5.47;;;2.73;;